createdAt,value
2022-09-07T00:02:30.495Z,1.58
2022-09-07T00:04:56.919Z,1.20
2022-09-07T00:07:30.400Z,1.30
2022-09-07T00:10:03.434Z,1.95
2022-09-07T00:12:36.450Z,1.45
2022-09-07T00:15:11.413Z,1.55
2022-09-07T00:17:37.903Z,1.70
2022-09-07T00:20:14.424Z,1.83
2022-09-07T00:22:40.895Z,1.77
2022-09-07T00:25:14.433Z,2.20
2022-09-07T00:27:41.300Z,2.00
2022-09-07T00:30:16.442Z,2.00
2022-09-07T00:32:50.420Z,1.75
2022-09-07T00:35:16.961Z,1.55
2022-09-07T00:37:50.430Z,1.95
2022-09-07T00:40:17.029Z,1.75
2022-09-07T00:42:50.433Z,1.50
2022-09-07T00:45:19.481Z,1.80
2022-09-07T00:48:04.408Z,1.50
2022-09-07T00:50:36.409Z,1.27
2022-09-07T00:53:13.432Z,1.10
2022-09-07T00:55:42.543Z,1.47
2022-09-07T00:58:10.232Z,1.45
2022-09-07T01:00:44.407Z,1.45
2022-09-07T01:03:11.485Z,1.15
2022-09-07T01:05:52.421Z,1.00
2022-09-07T01:08:18.987Z,1.10
2022-09-07T01:10:54.442Z,1.10
2022-09-07T01:13:20.857Z,0.95
2022-09-07T01:16:14.493Z,1.17
2022-09-07T01:19:16.479Z,1.15
2022-09-07T01:22:24.570Z,1.03
2022-09-07T01:25:07.035Z,1.00
2022-09-07T01:27:56.407Z,1.00
2022-09-07T01:30:24.495Z,1.10
2022-09-07T01:33:16.405Z,1.02
2022-09-07T01:36:01.114Z,1.03
2022-09-07T01:39:08.386Z,1.20
2022-09-07T01:41:57.451Z,1.13
2022-09-07T01:44:40.409Z,1.00
2022-09-07T01:47:17.995Z,1.17
2022-09-07T01:50:35.412Z,1.00
2022-09-07T01:53:09.549Z,0.93
2022-09-07T01:56:06.408Z,0.95
2022-09-07T01:58:46.394Z,1.20
2022-09-07T02:01:28.521Z,1.02
2022-09-07T02:04:16.391Z,1.60
2022-09-07T02:06:49.002Z,1.13
2022-09-07T02:09:40.400Z,1.60
2022-09-07T02:12:15.856Z,1.42
2022-09-07T02:14:54.405Z,1.35
2022-09-07T02:17:38.408Z,1.47
2022-09-07T02:20:11.270Z,1.38
2022-09-07T02:22:48.415Z,1.67
2022-09-07T02:25:21.924Z,1.35
2022-09-07T02:28:02.388Z,1.30
2022-09-07T02:30:42.473Z,1.20
2022-09-07T02:33:09.395Z,1.30
2022-09-07T02:35:43.405Z,1.10
2022-09-07T02:38:09.991Z,0.90
2022-09-07T02:40:36.355Z,1.00
2022-09-07T02:43:14.385Z,1.60
2022-09-07T02:46:08.469Z,0.82
2022-09-07T02:49:06.393Z,1.00
2022-09-07T02:51:51.786Z,0.98
2022-09-07T02:54:34.393Z,0.75
2022-09-07T02:57:08.406Z,0.73
2022-09-07T02:59:52.402Z,0.95
2022-09-07T03:02:20.808Z,0.75
2022-09-07T03:05:18.407Z,0.95
2022-09-07T03:07:51.554Z,0.80
2022-09-07T03:10:25.386Z,0.90
2022-09-07T03:12:52.011Z,0.75
2022-09-07T03:15:21.629Z,1.02
2022-09-07T03:17:54.420Z,1.02
2022-09-07T03:20:22.269Z,0.93
2022-09-07T03:23:00.383Z,1.13
2022-09-07T03:25:33.409Z,1.30
2022-09-07T03:28:06.629Z,1.23
2022-09-07T03:30:50.494Z,1.00
2022-09-07T03:33:17.474Z,1.02
2022-09-07T03:36:05.376Z,1.07
2022-09-07T03:38:31.989Z,1.10
2022-09-07T03:41:10.371Z,0.88
2022-09-07T03:43:36.782Z,0.90
2022-09-07T03:46:12.425Z,1.02
2022-09-07T03:48:39.403Z,0.80
2022-09-07T03:51:08.299Z,1.45
2022-09-07T03:53:44.382Z,1.35
2022-09-07T03:56:16.157Z,0.90
2022-09-07T03:58:50.386Z,1.05
2022-09-07T04:01:19.457Z,1.10
2022-09-07T04:03:47.086Z,1.15
2022-09-07T04:06:20.422Z,1.50
2022-09-07T04:08:47.062Z,1.25
2022-09-07T04:11:16.924Z,1.20
2022-09-07T04:13:50.368Z,1.17
2022-09-07T04:16:28.477Z,1.30
2022-09-07T04:18:54.876Z,1.30
2022-09-07T04:21:30.362Z,1.15
2022-09-07T04:23:56.812Z,1.52
2022-09-07T04:26:29.025Z,1.30
2022-09-07T04:29:02.362Z,1.17
2022-09-07T04:31:42.389Z,1.50
2022-09-07T04:34:15.077Z,1.27
2022-09-07T04:36:48.383Z,1.23
2022-09-07T04:39:14.831Z,1.30
2022-09-07T04:41:41.219Z,1.52
2022-09-07T04:44:16.979Z,1.38
2022-09-07T04:46:50.373Z,1.40
2022-09-07T04:52:18.428Z,1.07
2022-09-07T04:54:49.571Z,1.08
2022-09-07T04:57:16.333Z,1.20
2022-09-07T04:59:50.413Z,1.25
2022-09-07T05:02:17.466Z,1.20
2022-09-07T05:04:43.908Z,1.40
2022-09-07T05:07:16.363Z,1.38
2022-09-07T05:09:42.807Z,1.40
2022-09-07T05:12:16.377Z,1.58
2022-09-07T05:14:42.890Z,1.60
2022-09-07T05:17:09.385Z,1.70
2022-09-07T05:19:42.373Z,1.30
2022-09-07T05:22:08.812Z,1.55
2022-09-07T05:24:43.387Z,1.55
2022-09-07T05:27:16.366Z,1.85
2022-09-07T05:32:36.416Z,1.42
2022-09-07T05:35:10.386Z,1.20
2022-09-07T05:37:36.763Z,1.42
2022-09-07T05:40:10.470Z,1.63
2022-09-07T05:42:37.459Z,1.77
2022-09-07T05:45:11.369Z,1.50
2022-09-07T05:47:44.383Z,1.77
2022-09-07T05:50:11.456Z,1.65
2022-09-07T05:52:44.383Z,1.35
2022-09-07T05:55:28.870Z,1.30
2022-09-07T05:58:04.349Z,1.25
2022-09-07T06:00:38.411Z,1.30
2022-09-07T06:03:12.655Z,1.50
2022-09-07T06:05:46.368Z,1.60
2022-09-07T06:08:20.539Z,2.93
2022-09-07T06:10:47.083Z,2.22
2022-09-07T06:13:13.531Z,2.40
2022-09-07T06:15:46.384Z,2.33
2022-09-07T06:18:19.370Z,2.20
2022-09-07T06:20:45.754Z,2.10
2022-09-07T06:23:12.121Z,2.30
2022-09-07T06:25:45.340Z,2.78
2022-09-07T06:28:18.359Z,3.03
2022-09-07T06:30:44.794Z,2.95
2022-09-07T06:33:21.930Z,3.07
2022-09-07T06:36:03.273Z,3.17
2022-09-07T06:38:38.389Z,3.08
2022-09-07T06:44:20.382Z,2.92
2022-09-07T06:49:36.390Z,3.38
2022-09-07T06:52:03.824Z,3.75
2022-09-07T06:57:24.363Z,3.38
2022-09-07T06:59:50.792Z,2.97
2022-09-07T07:02:24.362Z,3.22
2022-09-07T07:04:58.361Z,3.97
2022-09-07T07:07:24.763Z,3.67
2022-09-07T07:09:51.219Z,3.85
2022-09-07T07:14:49.645Z,3.83
2022-09-07T07:17:22.354Z,4.22
2022-09-07T07:19:55.354Z,4.13
2022-09-07T07:22:45.494Z,4.80
2022-09-07T07:25:15.378Z,3.93
2022-09-07T07:27:42.314Z,3.95
2022-09-07T07:30:22.375Z,4.35
2022-09-07T07:32:48.777Z,4.22
2022-09-07T07:35:22.314Z,4.47
2022-09-07T07:37:52.369Z,4.70
2022-09-07T07:40:30.331Z,4.68
2022-09-07T07:42:57.462Z,4.50
2022-09-07T07:48:16.693Z,5.22
2022-09-07T07:50:50.314Z,4.73
2022-09-07T07:53:41.568Z,5.93
2022-09-07T07:56:10.102Z,5.82
2022-09-07T07:58:44.314Z,6.13
2022-09-07T08:01:13.340Z,6.07
2022-09-07T08:03:50.334Z,5.60
2022-09-07T08:06:18.870Z,5.25
2022-09-07T08:08:52.310Z,5.63
2022-09-07T08:11:20.550Z,5.20
2022-09-07T08:13:58.283Z,5.25
2022-09-07T08:16:31.341Z,5.40
2022-09-07T08:19:04.315Z,5.18
2022-09-07T08:21:30.804Z,6.25
2022-09-07T08:23:57.232Z,5.88
2022-09-07T08:26:30.312Z,6.30
2022-09-07T08:29:12.306Z,7.20
2022-09-07T08:31:46.345Z,6.82
2022-09-07T08:34:12.734Z,7.05
2022-09-07T08:36:46.304Z,7.07
2022-09-07T08:39:13.115Z,7.40
2022-09-07T08:42:04.315Z,6.70
2022-09-07T08:44:48.322Z,7.07
2022-09-07T08:47:42.952Z,6.80
2022-09-07T08:50:26.300Z,6.53
2022-09-07T08:53:00.040Z,6.97
2022-09-07T08:55:44.311Z,7.37
2022-09-07T08:58:32.523Z,7.07
2022-09-07T09:01:34.048Z,7.43
2022-09-07T09:04:18.229Z,7.22
2022-09-07T09:07:03.374Z,7.15
2022-09-07T09:09:51.865Z,6.93
2022-09-07T09:12:35.570Z,7.15
2022-09-07T09:15:22.333Z,6.82
2022-09-07T09:18:14.635Z,6.82
2022-09-07T09:20:48.647Z,7.43
2022-09-07T09:23:24.350Z,7.10
2022-09-07T09:26:01.551Z,7.05
2022-09-07T09:28:34.553Z,7.22
2022-09-07T09:31:01.237Z,6.75
2022-09-07T09:33:28.832Z,6.68
2022-09-07T09:36:06.331Z,7.33
2022-09-07T09:38:43.490Z,6.93
2022-09-07T09:41:18.281Z,6.80
2022-09-07T09:44:02.311Z,7.00
2022-09-07T09:46:32.478Z,5.80
2022-09-07T09:49:20.314Z,6.60
2022-09-07T09:55:03.292Z,6.72
2022-09-07T10:01:27.703Z,5.68
2022-09-07T10:06:28.297Z,6.30
2022-09-07T10:08:57.776Z,5.90
2022-09-07T10:12:08.221Z,5.80
2022-09-07T10:14:46.689Z,5.53
2022-09-07T10:17:50.297Z,5.30
2022-09-07T10:20:16.636Z,5.30
2022-09-07T10:22:58.303Z,5.55
2022-09-07T11:00:07.894Z,1.73
2022-09-07T11:06:02.484Z,1.95
2022-09-07T11:14:29.310Z,1.90
2022-09-07T11:16:59.673Z,2.05
2022-09-07T11:19:36.363Z,2.25
2022-09-07T11:22:19.498Z,2.28
2022-09-07T11:25:31.608Z,2.40
2022-09-07T11:28:08.910Z,2.08
2022-09-07T11:30:42.899Z,2.03
2022-09-07T11:33:23.114Z,2.20
2022-09-07T11:36:01.123Z,1.80
2022-09-07T11:38:46.778Z,1.27
2022-09-07T11:41:22.173Z,2.05
2022-09-07T11:44:00.721Z,1.65
2022-09-07T11:46:40.690Z,1.55
2022-09-07T11:49:15.559Z,1.25
2022-09-07T11:51:53.698Z,1.20
2022-09-07T11:54:32.466Z,1.42
2022-09-07T11:57:28.798Z,1.70
2022-09-07T12:00:00.806Z,1.52
2022-09-07T12:03:00.912Z,1.42
2022-09-07T12:05:33.717Z,1.77
2022-09-07T12:08:32.484Z,1.45
2022-09-07T12:11:22.614Z,2.15
2022-09-07T12:13:58.755Z,1.55
2022-09-07T12:16:45.979Z,1.30
2022-09-07T12:19:20.587Z,1.10
2022-09-07T12:21:54.402Z,1.40
2022-09-07T12:24:32.744Z,2.00
2022-09-07T12:27:00.722Z,1.23
2022-09-07T12:29:29.566Z,1.40
2022-09-07T12:32:00.095Z,1.20
2022-09-07T12:34:35.063Z,1.48
2022-09-07T12:37:08.911Z,1.45
2022-09-07T12:39:43.503Z,1.55
2022-09-07T12:42:34.113Z,1.50
2022-09-07T12:45:28.272Z,1.37
2022-09-07T12:48:04.348Z,1.50
2022-09-07T12:50:39.264Z,1.40
2022-09-07T12:53:40.791Z,1.17
2022-09-07T12:56:32.035Z,1.65
2022-09-07T12:59:18.930Z,1.63
2022-09-07T13:01:59.275Z,1.15
2022-09-07T13:04:43.995Z,1.92
2022-09-07T13:07:22.630Z,1.65
2022-09-07T13:10:00.511Z,1.48
2022-09-07T13:12:54.695Z,1.17
2022-09-07T13:15:49.569Z,1.60
2022-09-07T13:18:28.537Z,1.35
2022-09-07T13:21:10.939Z,1.10
2022-09-07T13:23:49.590Z,2.10
2022-09-07T13:26:53.633Z,1.60
2022-09-07T13:29:36.710Z,1.70
2022-09-07T13:35:20.291Z,1.73
2022-09-07T13:38:02.037Z,1.42
2022-09-07T13:40:39.069Z,1.23
2022-09-07T13:43:12.164Z,1.00
2022-09-07T13:45:53.864Z,1.10
2022-09-07T13:48:36.884Z,1.20
2022-09-07T13:51:34.481Z,0.80
2022-09-07T13:54:03.889Z,1.20
2022-09-07T13:56:45.045Z,0.98
2022-09-07T13:59:19.753Z,1.20
2022-09-07T14:01:48.011Z,1.33
2022-09-07T14:04:41.327Z,0.93
2022-09-07T14:07:25.428Z,1.50
2022-09-07T14:10:06.949Z,0.80
2022-09-07T14:12:43.182Z,0.93
2022-09-07T14:15:34.316Z,0.85
2022-09-07T14:18:13.122Z,0.80
2022-09-07T14:20:49.483Z,0.90
2022-09-07T14:23:23.955Z,0.70
2022-09-07T14:26:19.944Z,0.40
2022-09-07T14:28:48.916Z,0.90
2022-09-07T14:31:18.013Z,0.63
2022-09-07T14:33:55.377Z,0.53
2022-09-07T14:36:43.975Z,0.73
2022-09-07T14:39:13.440Z,1.27
2022-09-07T14:41:42.977Z,0.40
2022-09-07T14:44:37.636Z,0.70
2022-09-07T14:47:30.432Z,0.70
2022-09-07T14:50:05.322Z,0.70
2022-09-07T14:52:42.307Z,0.65
2022-09-07T14:55:27.915Z,0.80
2022-09-07T14:58:13.503Z,0.90
2022-09-07T15:00:42.286Z,0.70
2022-09-07T15:03:32.172Z,0.60
2022-09-07T15:06:01.468Z,0.68
2022-09-07T15:08:48.722Z,0.80
2022-09-07T15:11:39.504Z,0.85
2022-09-07T15:14:20.323Z,0.77
2022-09-07T15:19:45.446Z,0.70
2022-09-07T15:22:13.347Z,0.95
2022-09-07T15:24:39.885Z,0.93
2022-09-07T15:27:26.914Z,0.90
2022-09-07T15:29:53.364Z,0.88
2022-09-07T15:32:20.002Z,0.88
2022-09-07T15:34:46.561Z,0.93
2022-09-07T15:39:59.442Z,0.80
2022-09-07T15:45:13.412Z,1.05
2022-09-07T15:47:47.161Z,0.57
2022-09-07T15:50:17.183Z,0.70
2022-09-07T15:52:46.439Z,0.60
2022-09-07T15:55:13.562Z,0.60
2022-09-07T15:58:10.600Z,0.80
2022-09-07T16:00:27.113Z,0.80
2022-09-07T16:03:09.417Z,0.90
2022-09-07T16:05:40.653Z,0.67
2022-09-07T16:10:55.307Z,1.00
2022-09-07T16:13:24.122Z,0.80
2022-09-07T16:15:50.972Z,0.68
2022-09-07T16:18:18.386Z,1.10
2022-09-07T16:20:45.870Z,0.43
2022-09-07T16:23:15.227Z,1.00
2022-09-07T16:25:43.134Z,0.90
2022-09-07T16:28:10.240Z,0.52
2022-09-07T16:30:40.431Z,0.67
2022-09-07T16:33:07.375Z,0.90
2022-09-07T16:35:33.901Z,1.00
2022-09-07T16:40:46.731Z,1.05
2022-09-07T16:43:13.130Z,1.00
2022-09-07T16:48:25.939Z,0.90
2022-09-07T16:50:58.944Z,0.85
2022-09-07T16:53:29.199Z,0.50
2022-09-07T16:56:02.460Z,0.77
2022-09-07T16:58:38.296Z,1.00
2022-09-07T17:01:11.604Z,0.60
2022-09-07T17:03:38.895Z,0.65
2022-09-07T17:06:08.007Z,0.60
2022-09-07T17:08:35.912Z,0.70
2022-09-07T17:11:08.404Z,0.60
2022-09-07T17:13:37.011Z,0.68
2022-09-07T17:16:07.900Z,0.75
2022-09-07T17:21:22.090Z,1.07
2022-09-07T17:23:54.814Z,1.40
2022-09-07T17:26:23.318Z,2.33
2022-09-07T17:28:54.152Z,0.80
2022-09-07T17:34:13.233Z,0.90
2022-09-07T17:36:40.367Z,1.35
2022-09-07T17:39:16.401Z,6.53
2022-09-07T17:41:44.150Z,5.85
2022-09-07T17:44:10.900Z,2.13
2022-09-07T17:46:37.371Z,1.00
2022-09-07T17:49:05.145Z,1.05
2022-09-07T17:51:32.557Z,0.93
2022-09-07T17:54:02.514Z,0.63
2022-09-07T17:56:29.900Z,0.82
2022-09-07T18:00:10.735Z,0.90
2022-09-07T18:01:43.347Z,0.60
2022-09-07T18:04:10.996Z,0.70
2022-09-07T18:06:37.639Z,0.63
2022-09-07T18:09:05.311Z,0.80
2022-09-07T18:11:49.043Z,0.63
2022-09-07T18:14:16.798Z,0.80
2022-09-07T18:16:45.097Z,0.85
2022-09-07T18:19:12.332Z,0.80
2022-09-07T18:21:41.234Z,0.63
2022-09-07T18:24:23.440Z,0.60
2022-09-07T18:26:52.542Z,0.98
2022-09-07T18:29:29.866Z,0.70
2022-09-07T18:31:58.876Z,0.90
2022-09-07T18:34:25.611Z,1.00
2022-09-07T18:36:52.117Z,0.70
2022-09-07T18:39:18.686Z,0.88
2022-09-07T18:41:45.032Z,0.80
2022-09-07T18:46:57.874Z,0.93
2022-09-07T18:49:25.052Z,0.60
2022-09-07T18:54:38.932Z,0.80
2022-09-07T18:57:06.700Z,1.00
2022-09-07T18:59:33.281Z,1.10
2022-09-07T19:02:03.957Z,0.80
2022-09-07T19:07:20.277Z,0.70
2022-09-07T19:09:48.261Z,1.45
2022-09-07T19:12:15.068Z,1.10
2022-09-07T19:14:42.154Z,0.77
2022-09-07T19:17:10.743Z,0.80
2022-09-07T19:19:38.002Z,0.90
2022-09-07T19:22:04.408Z,0.75
2022-09-07T19:24:31.770Z,0.80
2022-09-07T19:27:00.430Z,0.90
2022-09-07T19:29:27.631Z,0.90
2022-09-07T19:32:11.881Z,0.80
2022-09-07T19:34:41.006Z,0.65
2022-09-07T19:37:09.305Z,0.75
2022-09-07T19:39:35.697Z,1.13
2022-09-07T19:42:04.179Z,0.80
2022-09-07T19:44:30.972Z,1.05
2022-09-07T19:47:00.021Z,1.10
2022-09-07T19:49:27.015Z,0.93
2022-09-07T19:51:54.644Z,0.90
2022-09-07T19:54:21.051Z,0.93
2022-09-07T19:56:47.422Z,0.70
2022-09-07T19:59:14.387Z,0.80
2022-09-07T20:01:45.704Z,0.90
2022-09-07T20:04:18.939Z,0.57
2022-09-07T20:06:47.996Z,0.80
2022-09-07T20:09:14.321Z,1.17
2022-09-07T20:11:46.024Z,1.15
2022-09-07T20:14:12.654Z,1.20
2022-09-07T20:16:40.024Z,1.53
2022-09-07T20:19:07.448Z,1.10
2022-09-07T20:21:34.271Z,0.85
2022-09-07T20:24:00.667Z,1.30
2022-09-07T20:26:27.271Z,1.80
2022-09-07T20:29:05.890Z,1.40
2022-09-07T20:31:41.635Z,1.20
2022-09-07T20:34:09.415Z,1.77
2022-09-07T20:36:36.166Z,1.40
2022-09-07T20:39:02.532Z,1.80
2022-09-07T20:41:31.424Z,1.27
2022-09-07T20:44:00.217Z,1.45
2022-09-07T20:46:28.369Z,1.27
2022-09-07T20:48:54.834Z,0.88
2022-09-07T20:51:22.235Z,1.30
2022-09-07T20:53:49.621Z,2.10
2022-09-07T20:56:24.423Z,1.70
2022-09-07T20:58:55.952Z,2.20
2022-09-07T21:01:23.419Z,1.92
2022-09-07T21:03:52.743Z,2.40
2022-09-07T21:06:20.533Z,2.33
2022-09-07T21:08:50.783Z,2.30
2022-09-07T21:11:22.922Z,2.13
2022-09-07T21:14:00.885Z,2.05
2022-09-07T21:16:28.014Z,2.25
2022-09-07T21:18:58.691Z,1.83
2022-09-07T21:21:27.194Z,2.13
2022-09-07T21:24:03.695Z,2.47
2022-09-07T21:26:32.093Z,1.85
2022-09-07T21:29:04.919Z,2.17
2022-09-07T21:31:33.632Z,1.80
2022-09-07T21:34:01.910Z,1.92
2022-09-07T21:36:29.381Z,2.28
2022-09-07T21:38:56.180Z,1.85
2022-09-07T21:41:24.545Z,1.50
2022-09-07T21:43:58.574Z,1.80
2022-09-07T21:46:26.081Z,1.83
2022-09-07T21:48:52.732Z,2.35
2022-09-07T21:51:19.109Z,2.00
2022-09-07T21:53:45.654Z,1.90
2022-09-07T21:56:14.092Z,1.97
2022-09-07T21:58:40.837Z,2.30
2022-09-07T22:01:12.311Z,2.03
2022-09-07T22:03:40.391Z,1.77
2022-09-07T22:06:08.122Z,2.00
2022-09-07T22:08:39.463Z,2.60
2022-09-07T22:11:11.565Z,2.60
2022-09-07T22:13:38.268Z,2.63
2022-09-07T22:16:06.241Z,2.60
2022-09-07T22:18:33.052Z,1.85
2022-09-07T22:21:10.732Z,2.47
2022-09-07T22:23:39.509Z,2.60
2022-09-07T22:26:07.850Z,2.38
2022-09-07T22:28:35.438Z,2.53
2022-09-07T22:31:17.253Z,2.30
2022-09-07T22:33:45.456Z,3.00
2022-09-07T22:36:15.347Z,2.65
2022-09-07T22:38:43.497Z,2.90
2022-09-07T22:41:12.475Z,2.63
2022-09-07T22:43:39.343Z,3.70
2022-09-07T22:46:07.053Z,3.23
2022-09-07T22:48:33.921Z,3.50
2022-09-07T22:51:01.250Z,4.20
2022-09-07T22:53:29.964Z,3.70
2022-09-07T22:55:56.999Z,3.65
2022-09-07T22:58:23.840Z,3.70
2022-09-07T23:00:51.294Z,3.88
2022-09-07T23:03:18.543Z,4.35
2022-09-07T23:05:44.941Z,4.88
2022-09-07T23:08:11.866Z,3.63
2022-09-07T23:10:39.241Z,4.40
2022-09-07T23:13:05.906Z,4.55
2022-09-07T23:15:35.879Z,5.78
2022-09-07T23:18:02.252Z,5.68
2022-09-07T23:20:28.649Z,6.05
2022-09-07T23:22:55.112Z,5.43
2022-09-07T23:25:21.489Z,5.32
2022-09-07T23:27:47.936Z,4.07
2022-09-07T23:30:14.609Z,4.32
2022-09-07T23:32:41.220Z,4.35
2022-09-07T23:35:08.237Z,4.00
2022-09-07T23:37:34.645Z,4.78
2022-09-07T23:40:01.185Z,4.28
2022-09-07T23:42:27.790Z,3.70
2022-09-07T23:44:54.184Z,3.78
2022-09-07T23:47:20.542Z,4.07
2022-09-07T23:49:47.057Z,4.32
2022-09-07T23:52:13.459Z,4.78
2022-09-07T23:54:39.932Z,4.57
2022-09-07T23:57:06.292Z,4.45
2022-09-07T23:59:33.840Z,4.80
